Vremea mâine în Bolintin Vale - Romania

Vrei sa afli care e starea vremii acum in Giurgiu - Romania? Dorim sa iti furnizam starea vremii pentru Giurgiu - Romania. Starea vremii Giurgiu - Romania pentru astazi.

Vremea mâine în Bolintin Vale

Temperatura minimă:
12 °C

Temperatura maximă:
24.7 °C

Mâine va fi: Patchy rain nearby
Precipitații: 89 %
Umiditate: 66%
Viteza maximă vânt mâine:
16.6 km/h

Evoluția vremii in Bolintin Vale pe ore mâine

Ora: 03:00
Temperatura: °C
Sansa de precipitatii: %
Ora Descriere Temp Se simte Precipitatii Umiditate Vant
00:00Patchy rain nearby13.5°13.4°100%83%S 6.5 KM/H
01:00Patchy rain nearby13.1°13°100%84%SSW 6.5 KM/H
02:00Patchy rain nearby12.9°12.9°100%84%SSW 5.8 KM/H
03:00Patchy rain nearby12.6°12.9°100%84%S 4.3 KM/H
04:00Patchy rain nearby12.4°12.9°89%83%S 3.6 KM/H
05:00Senin12.2°12.5°0%83%SSW 4.3 KM/H
06:00Senin12°12.5°0%83%S 3.6 KM/H
07:00Senin12.8°13.5°0%82%SSE 3.2 KM/H
08:00Senin14.5°15.1°0%75%SSE 4 KM/H
09:00Senin16.2°16.2°0%69%SSE 4.7 KM/H
10:00Senin18°18°0%63%SSE 5 KM/H
11:0019.8°19.8°0%57%SSE 5.8 KM/H
12:00Senin21.5°21.5°0%51%S 6.1 KM/H
13:00Senin22.7°24.6°0%47%SSW 6.1 KM/H
14:00Senin23.7°24.8°0%45%SSW 6.1 KM/H
15:0024.3°25.1°0%42%SW 6.1 KM/H
16:0024.7°25.2°0%41%SW 5 KM/H
17:00Thundery outbreaks in nearby24.7°25.2°0%40%SW 4.7 KM/H
18:00Thundery outbreaks in nearby24.3°25.1°0%42%SSW 5.8 KM/H
19:00Thundery outbreaks in nearby23.1°24.8°0%50%S 7.2 KM/H
20:00Thundery outbreaks in nearby20.7°20.7°100%59%SE 7.9 KM/H
21:00Patchy rain nearby18.2°18.2°100%71%ESE 11.9 KM/H
22:00Patchy rain nearby16.9°16.9°68%79%ESE 16.6 KM/H
23:00Senin15.8°15.8°0%82%SE 13.3 KM/H




tutorials